sensor_id;sensor_type;location;lat;lon;timestamp;pressure;altitude;pressure_sealevel;temperature;humidity
55801;BME280;41730;51.960;20.158;2023-03-04T00:01:50;99989.04;;;1.76;71.71
55801;BME280;41730;51.960;20.158;2023-03-04T00:04:21;99988.41;;;1.71;71.81
55801;BME280;41730;51.960;20.158;2023-03-04T00:06:53;99987.74;;;1.67;71.90
55801;BME280;41730;51.960;20.158;2023-03-04T00:09:25;99992.52;;;1.58;72.14
55801;BME280;41730;51.960;20.158;2023-03-04T00:11:57;99993.55;;;1.55;72.42
55801;BME280;41730;51.960;20.158;2023-03-04T00:14:29;99989.94;;;1.54;72.52
55801;BME280;41730;51.960;20.158;2023-03-04T00:17:00;99992.50;;;1.48;72.73
55801;BME280;41730;51.960;20.158;2023-03-04T00:19:33;99987.02;;;1.61;72.51
55801;BME280;41730;51.960;20.158;2023-03-04T00:22:06;99979.99;;;1.74;72.27
55801;BME280;41730;51.960;20.158;2023-03-04T00:24:37;99984.05;;;1.69;72.13
55801;BME280;41730;51.960;20.158;2023-03-04T00:27:09;99979.41;;;1.68;72.49
55801;BME280;41730;51.960;20.158;2023-03-04T00:29:40;99980.67;;;1.81;72.26
55801;BME280;41730;51.960;20.158;2023-03-04T00:32:12;99979.61;;;1.88;71.85
55801;BME280;41730;51.960;20.158;2023-03-04T00:34:45;99971.35;;;1.88;71.67
55801;BME280;41730;51.960;20.158;2023-03-04T00:37:17;99974.75;;;1.79;72.10
55801;BME280;41730;51.960;20.158;2023-03-04T00:39:49;99970.67;;;1.77;72.10
55801;BME280;41730;51.960;20.158;2023-03-04T00:42:21;99971.70;;;1.88;71.88
55801;BME280;41730;51.960;20.158;2023-03-04T00:44:54;99975.25;;;1.89;71.97
55801;BME280;41730;51.960;20.158;2023-03-04T00:47:27;99968.41;;;1.98;71.58
55801;BME280;41730;51.960;20.158;2023-03-04T00:49:59;99969.67;;;1.90;71.58
55801;BME280;41730;51.960;20.158;2023-03-04T00:52:31;99955.64;;;1.67;71.92
55801;BME280;41730;51.960;20.158;2023-03-04T00:55:03;99947.14;;;1.46;73.01
55801;BME280;41730;51.960;20.158;2023-03-04T00:57:35;99948.05;;;1.38;73.34
55801;BME280;41730;51.960;20.158;2023-03-04T01:00:09;99940.67;;;1.37;73.54
55801;BME280;41730;51.960;20.158;2023-03-04T01:02:41;99937.12;;;1.46;73.16
55801;BME280;41730;51.960;20.158;2023-03-04T01:05:13;99932.74;;;1.47;73.33
55801;BME280;41730;51.960;20.158;2023-03-04T01:07:45;99925.21;;;1.53;73.03
55801;BME280;41730;51.960;20.158;2023-03-04T01:10:18;99919.20;;;1.45;73.48
55801;BME280;41730;51.960;20.158;2023-03-04T01:12:49;99907.38;;;1.46;73.29
55801;BME280;41730;51.960;20.158;2023-03-04T01:15:21;99902.30;;;1.41;73.42
55801;BME280;41730;51.960;20.158;2023-03-04T01:17:55;99901.95;;;1.34;73.49
55801;BME280;41730;51.960;20.158;2023-03-04T01:20:28;99892.79;;;1.41;73.58
55801;BME280;41730;51.960;20.158;2023-03-04T01:23:00;99885.58;;;1.48;73.40
55801;BME280;41730;51.960;20.158;2023-03-04T01:25:32;99885.02;;;1.48;73.33
55801;BME280;41730;51.960;20.158;2023-03-04T01:28:04;99883.96;;;1.49;73.15
55801;BME280;41730;51.960;20.158;2023-03-04T01:30:35;99883.22;;;1.50;73.47
55801;BME280;41730;51.960;20.158;2023-03-04T01:33:07;99885.72;;;1.48;73.26
55801;BME280;41730;51.960;20.158;2023-03-04T01:35:39;99883.81;;;1.41;73.60
55801;BME280;41730;51.960;20.158;2023-03-04T01:38:11;99881.10;;;1.40;73.89
55801;BME280;41730;51.960;20.158;2023-03-04T01:40:43;99873.05;;;1.42;73.64
55801;BME280;41730;51.960;20.158;2023-03-04T01:43:20;99875.92;;;1.50;73.65
55801;BME280;41730;51.960;20.158;2023-03-04T01:45:53;99869.67;;;1.58;73.47
55801;BME280;41730;51.960;20.158;2023-03-04T01:48:28;99862.23;;;1.65;73.26
55801;BME280;41730;51.960;20.158;2023-03-04T01:51:01;99848.42;;;1.55;73.21
55801;BME280;41730;51.960;20.158;2023-03-04T01:53:34;99852.56;;;1.51;73.83
55801;BME280;41730;51.960;20.158;2023-03-04T01:56:14;99845.70;;;1.57;73.44
55801;BME280;41730;51.960;20.158;2023-03-04T01:58:49;99834.61;;;1.64;73.60
55801;BME280;41730;51.960;20.158;2023-03-04T02:01:38;99832.66;;;1.69;73.45
55801;BME280;41730;51.960;20.158;2023-03-04T02:04:10;99819.88;;;1.65;73.58
55801;BME280;41730;51.960;20.158;2023-03-04T02:06:43;99809.59;;;1.64;73.69
55801;BME280;41730;51.960;20.158;2023-03-04T02:09:15;99793.89;;;1.60;73.75
55801;BME280;41730;51.960;20.158;2023-03-04T02:11:48;99788.03;;;1.60;73.87
55801;BME280;41730;51.960;20.158;2023-03-04T02:14:20;99780.72;;;1.64;74.11
55801;BME280;41730;51.960;20.158;2023-03-04T02:16:52;99772.82;;;1.66;74.01
55801;BME280;41730;51.960;20.158;2023-03-04T02:19:39;99770.77;;;1.69;73.97
55801;BME280;41730;51.960;20.158;2023-03-04T02:22:13;99766.66;;;1.71;73.90
55801;BME280;41730;51.960;20.158;2023-03-04T02:24:47;99757.83;;;1.68;74.12
55801;BME280;41730;51.960;20.158;2023-03-04T02:27:21;99740.56;;;1.75;73.71
55801;BME280;41730;51.960;20.158;2023-03-04T02:29:53;99730.65;;;1.66;74.10
55801;BME280;41730;51.960;20.158;2023-03-04T02:32:25;99723.42;;;1.56;74.56
55801;BME280;41730;51.960;20.158;2023-03-04T02:34:57;99720.41;;;1.70;74.51
55801;BME280;41730;51.960;20.158;2023-03-04T02:37:29;99712.86;;;1.72;74.23
55801;BME280;41730;51.960;20.158;2023-03-04T02:40:00;99712.17;;;1.56;74.67
55801;BME280;41730;51.960;20.158;2023-03-04T02:42:32;99710.14;;;1.49;74.88
55801;BME280;41730;51.960;20.158;2023-03-04T02:45:04;99709.08;;;1.50;75.24
55801;BME280;41730;51.960;20.158;2023-03-04T02:47:36;99699.70;;;1.60;74.87
55801;BME280;41730;51.960;20.158;2023-03-04T02:50:10;99690.32;;;1.68;74.77
55801;BME280;41730;51.960;20.158;2023-03-04T02:52:42;99684.58;;;1.75;74.65
55801;BME280;41730;51.960;20.158;2023-03-04T02:55:13;99679.38;;;1.87;73.99
55801;BME280;41730;51.960;20.158;2023-03-04T02:57:45;99667.77;;;1.97;73.84
55801;BME280;41730;51.960;20.158;2023-03-04T03:02:48;99656.00;;;1.91;73.72
55801;BME280;41730;51.960;20.158;2023-03-04T03:05:21;99656.77;;;1.90;73.88
55801;BME280;41730;51.960;20.158;2023-03-04T03:07:54;99661.27;;;1.84;73.84
55801;BME280;41730;51.960;20.158;2023-03-04T03:10:26;99674.89;;;1.84;74.15
55801;BME280;41730;51.960;20.158;2023-03-04T03:12:58;99681.83;;;1.96;73.77
55801;BME280;41730;51.960;20.158;2023-03-04T03:15:30;99683.32;;;1.98;73.74
55801;BME280;41730;51.960;20.158;2023-03-04T03:18:02;99689.77;;;1.97;73.77
55801;BME280;41730;51.960;20.158;2023-03-04T03:20:33;99691.15;;;2.03;73.39
55801;BME280;41730;51.960;20.158;2023-03-04T03:23:05;99697.05;;;2.09;73.37
55801;BME280;41730;51.960;20.158;2023-03-04T03:25:37;99697.16;;;2.19;73.07
55801;BME280;41730;51.960;20.158;2023-03-04T03:28:10;99702.05;;;2.21;72.96
55801;BME280;41730;51.960;20.158;2023-03-04T03:30:41;99705.27;;;2.38;72.54
55801;BME280;41730;51.960;20.158;2023-03-04T03:33:14;99703.27;;;2.33;72.44
55801;BME280;41730;51.960;20.158;2023-03-04T03:35:45;99699.18;;;2.32;72.47
55801;BME280;41730;51.960;20.158;2023-03-04T03:38:18;99697.59;;;2.36;72.54
55801;BME280;41730;51.960;20.158;2023-03-04T03:40:50;99698.61;;;2.33;72.58
55801;BME280;41730;51.960;20.158;2023-03-04T03:43:22;99697.36;;;2.43;72.04
55801;BME280;41730;51.960;20.158;2023-03-04T03:45:54;99690.39;;;2.44;71.83
55801;BME280;41730;51.960;20.158;2023-03-04T03:48:26;99675.69;;;2.31;72.15
55801;BME280;41730;51.960;20.158;2023-03-04T03:50:59;99688.27;;;2.26;72.28
55801;BME280;41730;51.960;20.158;2023-03-04T03:53:31;99688.10;;;2.29;72.38
55801;BME280;41730;51.960;20.158;2023-03-04T03:56:03;99690.35;;;2.35;72.10
55801;BME280;41730;51.960;20.158;2023-03-04T03:58:36;99680.58;;;2.25;72.27
55801;BME280;41730;51.960;20.158;2023-03-04T04:01:08;99689.95;;;2.30;72.25
55801;BME280;41730;51.960;20.158;2023-03-04T04:03:40;99685.02;;;2.32;72.27
55801;BME280;41730;51.960;20.158;2023-03-04T04:06:12;99684.23;;;2.27;72.23
55801;BME280;41730;51.960;20.158;2023-03-04T04:08:43;99683.52;;;2.34;72.51
55801;BME280;41730;51.960;20.158;2023-03-04T04:11:15;99679.36;;;2.49;71.81
55801;BME280;41730;51.960;20.158;2023-03-04T04:13:47;99681.09;;;2.49;71.81
55801;BME280;41730;51.960;20.158;2023-03-04T04:16:19;99684.14;;;2.44;71.83
55801;BME280;41730;51.960;20.158;2023-03-04T04:18:51;99681.15;;;2.33;72.14
55801;BME280;41730;51.960;20.158;2023-03-04T04:21:23;99683.88;;;2.43;72.10
55801;BME280;41730;51.960;20.158;2023-03-04T04:23:56;99683.88;;;2.64;71.54
55801;BME280;41730;51.960;20.158;2023-03-04T04:26:28;99684.73;;;2.58;71.42
55801;BME280;41730;51.960;20.158;2023-03-04T04:29:01;99679.35;;;2.52;71.62
55801;BME280;41730;51.960;20.158;2023-03-04T04:31:36;99681.13;;;2.54;71.51
55801;BME280;41730;51.960;20.158;2023-03-04T04:34:16;99682.33;;;2.45;71.85
55801;BME280;41730;51.960;20.158;2023-03-04T04:36:56;99677.75;;;2.38;71.80
55801;BME280;41730;51.960;20.158;2023-03-04T04:39:33;99672.37;;;2.32;72.13
55801;BME280;41730;51.960;20.158;2023-03-04T04:42:07;99671.23;;;2.34;72.10
55801;BME280;41730;51.960;20.158;2023-03-04T04:44:39;99671.73;;;2.34;72.25
55801;BME280;41730;51.960;20.158;2023-03-04T04:47:11;99673.90;;;2.45;71.88
55801;BME280;41730;51.960;20.158;2023-03-04T04:49:43;99667.10;;;2.46;71.59
55801;BME280;41730;51.960;20.158;2023-03-04T04:52:15;99670.48;;;2.38;71.86
55801;BME280;41730;51.960;20.158;2023-03-04T04:54:50;99671.16;;;2.42;71.96
55801;BME280;41730;51.960;20.158;2023-03-04T04:57:22;99672.23;;;2.35;71.85
55801;BME280;41730;51.960;20.158;2023-03-04T04:59:54;99670.77;;;2.36;71.87
55801;BME280;41730;51.960;20.158;2023-03-04T05:02:27;99665.61;;;2.39;71.97
55801;BME280;41730;51.960;20.158;2023-03-04T05:04:58;99666.29;;;2.51;71.56
55801;BME280;41730;51.960;20.158;2023-03-04T05:07:31;99669.27;;;2.53;71.37
55801;BME280;41730;51.960;20.158;2023-03-04T05:10:04;99664.17;;;2.43;71.68
55801;BME280;41730;51.960;20.158;2023-03-04T05:12:36;99659.69;;;2.36;71.77
55801;BME280;41730;51.960;20.158;2023-03-04T05:15:10;99657.98;;;2.27;71.84
55801;BME280;41730;51.960;20.158;2023-03-04T05:17:42;99656.83;;;2.28;72.10
55801;BME280;41730;51.960;20.158;2023-03-04T05:20:14;99657.26;;;2.30;71.97
55801;BME280;41730;51.960;20.158;2023-03-04T05:22:46;99656.20;;;2.37;71.84
55801;BME280;41730;51.960;20.158;2023-03-04T05:25:18;99657.31;;;2.35;71.68
55801;BME280;41730;51.960;20.158;2023-03-04T05:27:51;99660.48;;;2.25;72.01
55801;BME280;41730;51.960;20.158;2023-03-04T05:30:23;99658.86;;;2.20;72.08
55801;BME280;41730;51.960;20.158;2023-03-04T05:32:55;99662.37;;;2.20;72.26
55801;BME280;41730;51.960;20.158;2023-03-04T05:35:27;99661.38;;;2.30;72.03
55801;BME280;41730;51.960;20.158;2023-03-04T05:37:59;99662.85;;;2.38;71.85
55801;BME280;41730;51.960;20.158;2023-03-04T05:40:30;99657.25;;;2.46;71.55
55801;BME280;41730;51.960;20.158;2023-03-04T05:43:03;99665.03;;;2.51;71.32
55801;BME280;41730;51.960;20.158;2023-03-04T05:45:35;99666.86;;;2.50;71.31
55801;BME280;41730;51.960;20.158;2023-03-04T05:48:08;99666.46;;;2.39;71.71
55801;BME280;41730;51.960;20.158;2023-03-04T05:50:40;99665.60;;;2.33;71.82
55801;BME280;41730;51.960;20.158;2023-03-04T05:53:12;99668.17;;;2.54;71.47
55801;BME280;41730;51.960;20.158;2023-03-04T05:55:48;99665.64;;;2.62;70.87
55801;BME280;41730;51.960;20.158;2023-03-04T05:58:19;99669.02;;;2.66;70.74
55801;BME280;41730;51.960;20.158;2023-03-04T06:00:51;99663.29;;;2.52;71.01
55801;BME280;41730;51.960;20.158;2023-03-04T06:03:24;99657.33;;;2.42;71.35
55801;BME280;41730;51.960;20.158;2023-03-04T06:05:56;99658.55;;;2.41;71.52
55801;BME280;41730;51.960;20.158;2023-03-04T06:08:29;99654.62;;;2.41;71.45
55801;BME280;41730;51.960;20.158;2023-03-04T06:11:01;99646.27;;;2.47;71.54
55801;BME280;41730;51.960;20.158;2023-03-04T06:13:35;99650.74;;;2.50;71.35
55801;BME280;41730;51.960;20.158;2023-03-04T06:16:08;99650.11;;;2.43;71.39
55801;BME280;41730;51.960;20.158;2023-03-04T06:18:40;99639.36;;;2.59;71.07
55801;BME280;41730;51.960;20.158;2023-03-04T06:21:12;99641.97;;;2.50;71.28
55801;BME280;41730;51.960;20.158;2023-03-04T06:23:44;99642.56;;;2.45;71.28
55801;BME280;41730;51.960;20.158;2023-03-04T06:26:16;99638.69;;;2.41;71.53
55801;BME280;41730;51.960;20.158;2023-03-04T06:28:48;99639.02;;;2.47;71.62
55801;BME280;41730;51.960;20.158;2023-03-04T06:31:20;99641.73;;;2.53;71.20
55801;BME280;41730;51.960;20.158;2023-03-04T06:33:52;99645.96;;;2.49;71.16
55801;BME280;41730;51.960;20.158;2023-03-04T06:36:24;99649.31;;;2.48;71.38
55801;BME280;41730;51.960;20.158;2023-03-04T06:38:55;99650.70;;;2.57;71.26
55801;BME280;41730;51.960;20.158;2023-03-04T06:41:27;99651.38;;;2.69;70.81
55801;BME280;41730;51.960;20.158;2023-03-04T06:43:59;99651.58;;;2.71;70.77
55801;BME280;41730;51.960;20.158;2023-03-04T06:46:33;99646.48;;;2.67;70.78
55801;BME280;41730;51.960;20.158;2023-03-04T06:49:05;99645.35;;;2.54;71.01
55801;BME280;41730;51.960;20.158;2023-03-04T06:51:37;99644.63;;;2.48;71.54
55801;BME280;41730;51.960;20.158;2023-03-04T06:54:10;99641.66;;;2.61;71.23
55801;BME280;41730;51.960;20.158;2023-03-04T06:56:42;99645.13;;;2.61;70.95
55801;BME280;41730;51.960;20.158;2023-03-04T06:59:14;99647.48;;;2.59;71.12
55801;BME280;41730;51.960;20.158;2023-03-04T07:01:46;99651.95;;;2.59;71.04
55801;BME280;41730;51.960;20.158;2023-03-04T07:04:18;99655.91;;;2.59;71.04
55801;BME280;41730;51.960;20.158;2023-03-04T07:06:53;99656.15;;;2.64;70.96
55801;BME280;41730;51.960;20.158;2023-03-04T07:09:25;99652.97;;;2.74;70.71
55801;BME280;41730;51.960;20.158;2023-03-04T07:11:56;99645.02;;;2.86;70.30
55801;BME280;41730;51.960;20.158;2023-03-04T07:14:28;99639.57;;;2.84;70.36
55801;BME280;41730;51.960;20.158;2023-03-04T07:17:00;99651.13;;;2.79;70.37
55801;BME280;41730;51.960;20.158;2023-03-04T07:19:32;99649.63;;;2.75;70.49
55801;BME280;41730;51.960;20.158;2023-03-04T07:22:05;99649.23;;;2.73;70.61
55801;BME280;41730;51.960;20.158;2023-03-04T07:24:37;99651.63;;;2.70;70.71
55801;BME280;41730;51.960;20.158;2023-03-04T07:27:08;99650.44;;;2.67;70.74
55801;BME280;41730;51.960;20.158;2023-03-04T07:29:40;99645.05;;;2.59;71.04
55801;BME280;41730;51.960;20.158;2023-03-04T07:32:12;99639.11;;;2.60;71.02
55801;BME280;41730;51.960;20.158;2023-03-04T07:34:43;99638.38;;;2.69;70.88
55801;BME280;41730;51.960;20.158;2023-03-04T07:37:15;99632.02;;;2.65;70.95
55801;BME280;41730;51.960;20.158;2023-03-04T07:39:47;99629.39;;;2.66;70.89
55801;BME280;41730;51.960;20.158;2023-03-04T07:42:18;99626.30;;;2.77;70.58
55801;BME280;41730;51.960;20.158;2023-03-04T07:44:50;99620.64;;;2.79;70.38
55801;BME280;41730;51.960;20.158;2023-03-04T07:47:24;99622.70;;;2.92;70.22
55801;BME280;41730;51.960;20.158;2023-03-04T07:49:55;99622.40;;;2.96;69.97
55801;BME280;41730;51.960;20.158;2023-03-04T07:52:27;99619.83;;;2.93;70.09
55801;BME280;41730;51.960;20.158;2023-03-04T07:54:59;99615.14;;;3.02;69.89
55801;BME280;41730;51.960;20.158;2023-03-04T07:57:32;99618.60;;;3.02;69.81
55801;BME280;41730;51.960;20.158;2023-03-04T08:00:04;99611.79;;;3.03;69.75
55801;BME280;41730;51.960;20.158;2023-03-04T08:02:37;99610.96;;;3.02;69.91
55801;BME280;41730;51.960;20.158;2023-03-04T08:05:11;99611.98;;;3.03;69.76
55801;BME280;41730;51.960;20.158;2023-03-04T08:07:42;99607.30;;;3.02;69.92
55801;BME280;41730;51.960;20.158;2023-03-04T08:10:14;99609.52;;;3.00;69.97
55801;BME280;41730;51.960;20.158;2023-03-04T08:12:46;99605.52;;;3.06;69.71
55801;BME280;41730;51.960;20.158;2023-03-04T08:15:18;99603.90;;;3.04;69.85
55801;BME280;41730;51.960;20.158;2023-03-04T08:17:49;99605.36;;;3.06;69.90
55801;BME280;41730;51.960;20.158;2023-03-04T08:20:23;99603.63;;;3.09;69.70
55801;BME280;41730;51.960;20.158;2023-03-04T08:22:55;99595.17;;;3.05;69.75
55801;BME280;41730;51.960;20.158;2023-03-04T08:25:26;99597.58;;;3.06;69.76
55801;BME280;41730;51.960;20.158;2023-03-04T08:27:59;99602.50;;;3.16;69.62
55801;BME280;41730;51.960;20.158;2023-03-04T08:30:30;99601.91;;;3.20;69.38
55801;BME280;41730;51.960;20.158;2023-03-04T08:33:04;99596.76;;;3.13;69.54
55801;BME280;41730;51.960;20.158;2023-03-04T08:35:37;99599.06;;;3.10;69.63
55801;BME280;41730;51.960;20.158;2023-03-04T08:38:09;99593.75;;;3.14;69.58
55801;BME280;41730;51.960;20.158;2023-03-04T08:40:40;99587.88;;;3.20;69.62
55801;BME280;41730;51.960;20.158;2023-03-04T08:43:12;99589.86;;;3.15;69.61
55801;BME280;41730;51.960;20.158;2023-03-04T08:45:44;99589.68;;;3.21;69.65
55801;BME280;41730;51.960;20.158;2023-03-04T08:48:18;99583.27;;;3.24;69.47
55801;BME280;41730;51.960;20.158;2023-03-04T08:50:52;99583.34;;;3.17;69.67
55801;BME280;41730;51.960;20.158;2023-03-04T08:53:26;99582.37;;;3.19;69.83
55801;BME280;41730;51.960;20.158;2023-03-04T08:55:58;99585.23;;;3.17;69.76
55801;BME280;41730;51.960;20.158;2023-03-04T08:58:31;99583.80;;;3.16;70.02
55801;BME280;41730;51.960;20.158;2023-03-04T09:01:06;99584.31;;;3.16;69.91
55801;BME280;41730;51.960;20.158;2023-03-04T09:03:38;99581.27;;;3.34;69.65
55801;BME280;41730;51.960;20.158;2023-03-04T09:06:11;99579.96;;;3.47;69.22
55801;BME280;41730;51.960;20.158;2023-03-04T09:08:44;99575.83;;;3.46;69.12
55801;BME280;41730;51.960;20.158;2023-03-04T09:11:17;99574.61;;;3.38;69.39
55801;BME280;41730;51.960;20.158;2023-03-04T09:13:49;99571.16;;;3.43;69.27
55801;BME280;41730;51.960;20.158;2023-03-04T09:16:22;99571.58;;;3.45;69.63
55801;BME280;41730;51.960;20.158;2023-03-04T09:18:53;99573.36;;;3.52;69.44
55801;BME280;41730;51.960;20.158;2023-03-04T09:21:25;99570.66;;;3.56;69.27
55801;BME280;41730;51.960;20.158;2023-03-04T09:23:57;99570.98;;;3.57;69.36
55801;BME280;41730;51.960;20.158;2023-03-04T09:26:30;99564.91;;;3.62;69.30
55801;BME280;41730;51.960;20.158;2023-03-04T09:29:03;99567.41;;;3.58;69.25
55801;BME280;41730;51.960;20.158;2023-03-04T09:31:35;99558.32;;;3.52;69.46
55801;BME280;41730;51.960;20.158;2023-03-04T09:34:07;99558.56;;;3.53;69.71
55801;BME280;41730;51.960;20.158;2023-03-04T09:36:39;99553.10;;;3.57;69.72
55801;BME280;41730;51.960;20.158;2023-03-04T09:39:13;99550.39;;;3.62;69.75
55801;BME280;41730;51.960;20.158;2023-03-04T09:41:47;99544.80;;;3.63;69.74
55801;BME280;41730;51.960;20.158;2023-03-04T09:44:26;99541.61;;;3.82;69.51
55801;BME280;41730;51.960;20.158;2023-03-04T09:47:01;99537.09;;;3.98;68.96
55801;BME280;41730;51.960;20.158;2023-03-04T09:49:34;99533.55;;;3.96;69.13
55801;BME280;41730;51.960;20.158;2023-03-04T09:52:17;99531.82;;;4.12;68.79
55801;BME280;41730;51.960;20.158;2023-03-04T09:55:03;99522.80;;;4.23;68.69
55801;BME280;41730;51.960;20.158;2023-03-04T09:57:45;99521.05;;;4.28;68.47
55801;BME280;41730;51.960;20.158;2023-03-04T10:00:20;99518.09;;;4.31;68.44
55801;BME280;41730;51.960;20.158;2023-03-04T10:03:09;99515.73;;;4.27;68.47
55801;BME280;41730;51.960;20.158;2023-03-04T10:05:47;99515.29;;;4.29;68.70
55801;BME280;41730;51.960;20.158;2023-03-04T10:08:35;99508.77;;;4.33;68.53
55801;BME280;41730;51.960;20.158;2023-03-04T10:11:14;99511.89;;;4.27;68.57
55801;BME280;41730;51.960;20.158;2023-03-04T10:14:07;99512.67;;;4.13;68.65
55801;BME280;41730;51.960;20.158;2023-03-04T10:16:48;99513.20;;;4.13;68.83
55801;BME280;41730;51.960;20.158;2023-03-04T10:19:35;99508.98;;;4.27;68.68
55801;BME280;41730;51.960;20.158;2023-03-04T10:22:18;99503.30;;;4.44;68.21
55801;BME280;41730;51.960;20.158;2023-03-04T10:24:56;99501.04;;;4.55;67.97
55801;BME280;41730;51.960;20.158;2023-03-04T10:27:29;99500.64;;;4.44;67.90
55801;BME280;41730;51.960;20.158;2023-03-04T10:30:01;99496.69;;;4.42;68.08
55801;BME280;41730;51.960;20.158;2023-03-04T10:32:33;99495.38;;;4.40;68.07
55801;BME280;41730;51.960;20.158;2023-03-04T10:35:10;99498.32;;;4.43;68.06
55801;BME280;41730;51.960;20.158;2023-03-04T10:37:48;99492.68;;;4.34;68.44
55801;BME280;41730;51.960;20.158;2023-03-04T10:40:22;99490.56;;;4.38;68.46
55801;BME280;41730;51.960;20.158;2023-03-04T10:42:55;99484.94;;;4.43;68.26
55801;BME280;41730;51.960;20.158;2023-03-04T10:45:30;99479.73;;;4.51;68.17
55801;BME280;41730;51.960;20.158;2023-03-04T10:48:05;99468.77;;;4.52;68.22
55801;BME280;41730;51.960;20.158;2023-03-04T10:50:37;99466.40;;;4.48;68.38
55801;BME280;41730;51.960;20.158;2023-03-04T10:53:29;99464.13;;;4.56;68.38
55801;BME280;41730;51.960;20.158;2023-03-04T10:56:07;99463.45;;;4.66;68.09
55801;BME280;41730;51.960;20.158;2023-03-04T11:02:24;99462.14;;;4.94;67.54
55801;BME280;41730;51.960;20.158;2023-03-04T11:05:10;99462.06;;;4.87;67.47
55801;BME280;41730;51.960;20.158;2023-03-04T11:07:50;99457.11;;;4.84;67.68
55801;BME280;41730;51.960;20.158;2023-03-04T11:10:30;99455.24;;;4.85;67.67
55801;BME280;41730;51.960;20.158;2023-03-04T11:13:15;99452.89;;;4.87;67.86
55801;BME280;41730;51.960;20.158;2023-03-04T11:15:52;99451.15;;;4.87;67.78
55801;BME280;41730;51.960;20.158;2023-03-04T11:18:30;99451.30;;;4.85;67.90
55801;BME280;41730;51.960;20.158;2023-03-04T11:21:07;99449.86;;;4.86;68.02
55801;BME280;41730;51.960;20.158;2023-03-04T11:23:49;99451.13;;;4.90;68.26
55801;BME280;41730;51.960;20.158;2023-03-04T11:26:27;99449.82;;;5.11;67.81
55801;BME280;41730;51.960;20.158;2023-03-04T11:29:04;99451.49;;;5.21;67.43
55801;BME280;41730;51.960;20.158;2023-03-04T11:31:42;99449.16;;;5.29;67.03
55801;BME280;41730;51.960;20.158;2023-03-04T11:34:23;99446.23;;;5.12;67.54
55801;BME280;41730;51.960;20.158;2023-03-04T11:37:03;99446.34;;;5.08;67.80
55801;BME280;41730;51.960;20.158;2023-03-04T11:39:38;99441.55;;;5.12;67.59
55801;BME280;41730;51.960;20.158;2023-03-04T11:42:22;99436.83;;;5.10;67.80
55801;BME280;41730;51.960;20.158;2023-03-04T11:44:55;99437.82;;;5.06;68.10
55801;BME280;41730;51.960;20.158;2023-03-04T11:47:44;99431.20;;;5.04;68.05
55801;BME280;41730;51.960;20.158;2023-03-04T11:50:30;99433.95;;;5.00;68.03
55801;BME280;41730;51.960;20.158;2023-03-04T11:53:30;99432.60;;;5.04;68.10
55801;BME280;41730;51.960;20.158;2023-03-04T11:56:12;99430.41;;;5.24;67.64
55801;BME280;41730;51.960;20.158;2023-03-04T12:01:57;99421.00;;;5.20;67.65
55801;BME280;41730;51.960;20.158;2023-03-04T12:04:34;99421.16;;;5.20;67.73
55801;BME280;41730;51.960;20.158;2023-03-04T12:07:40;99419.48;;;5.26;67.62
55801;BME280;41730;51.960;20.158;2023-03-04T12:10:22;99413.98;;;5.23;68.02
55801;BME280;41730;51.960;20.158;2023-03-04T12:13:12;99410.75;;;5.27;67.78
55801;BME280;41730;51.960;20.158;2023-03-04T12:15:52;99404.98;;;5.25;67.79
55801;BME280;41730;51.960;20.158;2023-03-04T12:18:42;99403.12;;;5.15;67.95
55801;BME280;41730;51.960;20.158;2023-03-04T12:21:32;99400.36;;;5.15;68.26
55801;BME280;41730;51.960;20.158;2023-03-04T12:24:21;99398.12;;;5.17;68.23
55801;BME280;41730;51.960;20.158;2023-03-04T12:26:59;99396.84;;;5.15;68.23
55801;BME280;41730;51.960;20.158;2023-03-04T12:29:44;99397.83;;;5.02;68.68
55801;BME280;41730;51.960;20.158;2023-03-04T12:32:25;99391.12;;;5.01;69.11
55801;BME280;41730;51.960;20.158;2023-03-04T12:35:17;99387.94;;;5.04;69.13
55801;BME280;41730;51.960;20.158;2023-03-04T12:38:00;99385.35;;;5.02;69.50
55801;BME280;41730;51.960;20.158;2023-03-04T12:40:48;99385.83;;;5.00;69.69
55801;BME280;41730;51.960;20.158;2023-03-04T12:43:34;99381.65;;;4.95;69.92
55801;BME280;41730;51.960;20.158;2023-03-04T12:46:26;99379.75;;;4.95;70.12
55801;BME280;41730;51.960;20.158;2023-03-04T12:49:21;99375.39;;;4.95;70.36
55801;BME280;41730;51.960;20.158;2023-03-04T12:52:05;99379.61;;;4.97;70.25
55801;BME280;41730;51.960;20.158;2023-03-04T12:54:40;99378.35;;;5.19;69.95
55801;BME280;41730;51.960;20.158;2023-03-04T12:57:15;99372.45;;;5.28;69.50
55801;BME280;41730;51.960;20.158;2023-03-04T12:59:56;99368.86;;;5.37;69.45
55801;BME280;41730;51.960;20.158;2023-03-04T13:02:44;99371.49;;;5.31;69.53
55801;BME280;41730;51.960;20.158;2023-03-04T13:05:34;99367.15;;;5.36;69.30
55801;BME280;41730;51.960;20.158;2023-03-04T13:08:17;99365.14;;;5.40;69.12
55801;BME280;41730;51.960;20.158;2023-03-04T13:10:58;99364.88;;;5.46;69.03
55801;BME280;41730;51.960;20.158;2023-03-04T13:13:41;99360.55;;;5.62;68.55
55801;BME280;41730;51.960;20.158;2023-03-04T13:16:31;99360.53;;;5.53;68.59
55801;BME280;41730;51.960;20.158;2023-03-04T13:19:03;99358.20;;;5.53;68.75
55801;BME280;41730;51.960;20.158;2023-03-04T13:21:55;99353.10;;;5.59;68.56
55801;BME280;41730;51.960;20.158;2023-03-04T13:24:44;99356.07;;;5.54;68.69
55801;BME280;41730;51.960;20.158;2023-03-04T13:27:48;99353.55;;;5.51;69.13
55801;BME280;41730;51.960;20.158;2023-03-04T13:30:43;99356.44;;;5.43;69.31
55801;BME280;41730;51.960;20.158;2023-03-04T13:34:02;99399.83;;;5.39;69.95
55801;BME280;41730;51.960;20.158;2023-03-04T13:36:57;99409.38;;;5.27;70.02
55801;BME280;41730;51.960;20.158;2023-03-04T13:39:33;99413.57;;;4.83;70.34
55801;BME280;41730;51.960;20.158;2023-03-04T13:45:30;99423.20;;;4.20;71.17
55801;BME280;41730;51.960;20.158;2023-03-04T13:48:06;99423.46;;;3.99;71.26
55801;BME280;41730;51.960;20.158;2023-03-04T13:50:48;99421.57;;;3.78;71.60
55801;BME280;41730;51.960;20.158;2023-03-04T13:53:38;99417.30;;;3.56;71.87
55801;BME280;41730;51.960;20.158;2023-03-04T13:56:31;99418.41;;;3.37;72.28